Time;durP1;ratioP1;P1;durP2;ratioP2;P2;SDS_P1;SDS_P2;PMS_P1;PMS_P2;Temp;Humidity;BMP_temperature;BMP_pressure;BME280_temperature;BME280_humidity;BME280_pressure;Samples;Min_cycle;Max_cycle;Signal;HPM_P1;HPM_P2
2023/10/12 00:00:24;;;;;;;7.43;2.80;;;26.40;48.00;;;;;;5064942;28;20195;-69
2023/10/12 00:02:48;;;;;;;5.07;2.40;;;26.60;46.90;;;;;;5070707;28;20183;-69
2023/10/12 00:05:18;;;;;;;11.57;3.50;;;26.50;47.20;;;;;;5062115;28;20183;-69
2023/10/12 00:07:49;;;;;;;8.93;2.30;;;26.60;46.50;;;;;;5070098;28;20183;-68
2023/10/12 00:12:46;;;;;;;3.93;1.90;;;27.20;45.20;;;;;;5075171;28;20229;-70
2023/10/12 00:17:55;;;;;;;9.03;2.10;;;27.70;41.30;;;;;;5075847;28;20175;-69
2023/10/12 00:20:43;;;;;;;9.13;1.83;;;27.60;40.60;;;;;;5075296;28;20234;-70
2023/10/12 00:23:12;;;;;;;7.03;2.27;;;27.60;41.00;;;;;;5074665;28;20179;-70
2023/10/12 00:25:47;;;;;;;6.93;2.40;;;27.90;40.70;;;;;;5074824;28;20190;-70
2023/10/12 00:28:18;;;;;;;10.50;2.63;;;28.20;39.50;;;;;;5075735;28;20667;-71
2023/10/12 00:30:57;;;;;;;4.60;2.37;;;28.50;39.10;;;;;;5076015;28;20187;-71
2023/10/12 00:33:25;;;;;;;10.27;2.50;;;28.30;39.90;;;;;;5074802;28;20176;-71
2023/10/12 00:36:04;;;;;;;8.70;2.43;;;28.40;38.20;;;;;;5075533;28;20215;-71
2023/10/12 00:38:32;;;;;;;5.97;2.10;;;28.80;36.80;;;;;;5075244;28;20201;-69
2023/10/12 00:41:04;;;;;;;6.97;2.40;;;28.80;36.60;;;;;;5075321;28;20231;-69
2023/10/12 00:43:39;;;;;;;11.10;3.23;;;28.80;38.80;;;;;;5062047;28;20179;-70
2023/10/12 00:49:39;;;;;;;7.10;2.47;;;28.90;39.10;;;;;;5074573;28;20179;-70
2023/10/12 00:51:51;;;;;;;4.73;2.53;;;28.70;41.30;;;;;;5068991;28;20190;-70
2023/10/12 00:54:27;;;;;;;5.80;2.50;;;29.10;38.20;;;;;;5056945;28;20643;-70
2023/10/12 00:57:02;;;;;;;10.03;2.37;;;29.30;40.20;;;;;;5062086;28;20212;-70
2023/10/12 00:59:34;;;;;;;5.17;2.10;;;29.30;38.80;;;;;;5075116;28;20189;-69
2023/10/12 01:02:08;;;;;;;10.63;2.37;;;29.20;36.70;;;;;;5074496;28;20187;-70
2023/10/12 01:04:44;;;;;;;4.10;2.20;;;29.30;38.70;;;;;;5074150;28;20191;-66
2023/10/12 01:07:19;;;;;;;8.57;2.50;;;29.70;36.90;;;;;;5073575;28;20171;-69
2023/10/12 01:09:54;;;;;;;5.97;2.20;;;29.70;37.50;;;;;;5074029;28;20175;-69
2023/10/12 01:12:29;;;;;;;4.33;1.90;;;29.90;35.90;;;;;;5075234;28;20521;-69
2023/10/12 01:14:57;;;;;;;5.17;2.17;;;29.90;34.20;;;;;;5074465;28;20194;-66
2023/10/12 01:17:29;;;;;;;8.63;2.10;;;29.90;34.10;;;;;;5074833;28;20183;-68
2023/10/12 01:19:57;;;;;;;5.47;2.10;;;30.00;33.60;;;;;;5074531;28;20316;-69
2023/10/12 01:22:31;;;;;;;4.90;2.17;;;30.10;33.30;;;;;;5073221;28;20300;-70
2023/10/12 01:25:03;;;;;;;6.37;2.17;;;30.20;34.30;;;;;;5073521;28;20185;-69
2023/10/12 01:27:31;;;;;;;5.17;2.47;;;30.40;35.20;;;;;;5074856;28;20256;-68
2023/10/12 01:33:02;;;;;;;7.90;2.60;;;30.40;35.10;;;;;;5060087;28;20203;-67
2023/10/12 01:35:33;;;;;;;7.77;2.90;;;30.50;35.70;;;;;;5074359;28;20347;-68
2023/10/12 01:38:01;;;;;;;6.80;3.60;;;30.60;36.00;;;;;;5074433;28;20175;-69
2023/10/12 01:40:55;;;;;;;4.83;2.20;;;30.80;35.40;;;;;;5074209;28;20190;-68
2023/10/12 01:43:27;;;;;;;8.17;3.00;;;30.80;34.10;;;;;;5074400;28;20175;-69
2023/10/12 01:46:01;;;;;;;10.53;2.63;;;30.50;35.90;;;;;;5072711;28;20224;-70
2023/10/12 01:48:33;;;;;;;5.05;2.70;;;30.80;34.70;;;;;;5070864;28;20230;-70
2023/10/12 01:51:14;;;;;;;7.13;2.60;;;30.50;35.80;;;;;;5074442;28;20171;-69
2023/10/12 01:53:42;;;;;;;3.95;2.00;;;30.90;35.90;;;;;;5068270;28;20187;-67
2023/10/12 01:56:10;;;;;;;11.63;2.67;;;31.10;35.00;;;;;;5062089;28;20939;-68
2023/10/12 01:58:44;;;;;;;7.43;2.88;;;31.30;37.00;;;;;;5072104;28;20218;-69
2023/10/12 02:01:18;;;;;;;9.23;2.65;;;31.20;36.80;;;;;;5072194;28;20198;-69
2023/10/12 02:03:47;;;;;;;5.05;2.47;;;31.30;35.80;;;;;;5072027;28;20175;-69
2023/10/12 02:06:16;;;;;;;6.40;2.17;;;31.30;33.70;;;;;;5070953;28;20183;-70
2023/10/12 02:11:42;;;;;;;12.35;2.80;;;30.90;38.50;;;;;;5076094;28;20191;-69
2023/10/12 02:14:01;;;;;;;7.65;2.75;;;31.00;37.40;;;;;;5069396;28;20199;-69
2023/10/12 02:16:31;;;;;;;6.63;2.47;;;30.90;38.70;;;;;;5068254;28;20215;-69
2023/10/12 02:19:04;;;;;;;9.05;3.10;;;30.80;39.10;;;;;;5065653;28;20175;-69
2023/10/12 02:21:40;;;;;;;7.65;2.50;;;30.50;40.70;;;;;;5070046;28;20595;-69
2023/10/12 02:26:36;;;;;;;6.45;2.92;;;30.50;40.30;;;;;;5071534;28;20218;-70
2023/10/12 02:31:39;;;;;;;6.80;2.97;;;30.40;41.60;;;;;;5067173;28;20232;-69
2023/10/12 02:34:13;;;;;;;8.10;3.60;;;30.30;42.60;;;;;;5071292;28;20656;-70
2023/10/12 02:36:40;;;;;;;8.90;3.40;;;30.50;40.90;;;;;;5062561;28;20271;-70
2023/10/12 02:39:10;;;;;;;9.80;3.17;;;30.30;41.90;;;;;;5066685;28;20255;-69
2023/10/12 02:41:42;;;;;;;8.43;3.40;;;30.40;42.00;;;;;;5068573;28;20687;-68
2023/10/12 02:44:14;;;;;;;11.52;2.72;;;30.70;42.60;;;;;;5052151;28;20183;-71
2023/10/12 02:47:04;;;;;;;8.93;2.80;;;30.50;41.90;;;;;;5067520;28;20313;-69
2023/10/12 02:49:34;;;;;;;8.18;3.08;;;30.00;43.00;;;;;;5069972;28;20186;-69
2023/10/12 02:52:05;;;;;;;12.70;3.20;;;29.80;43.20;;;;;;5062364;28;20556;-69
2023/10/12 02:54:38;;;;;;;8.90;3.05;;;30.20;42.80;;;;;;5050962;28;20218;-70
2023/10/12 02:57:06;;;;;;;9.63;3.67;;;30.10;43.00;;;;;;5071529;28;20661;-68
2023/10/12 02:59:38;;;;;;;8.53;3.10;;;30.30;42.40;;;;;;5070979;28;20186;-70
2023/10/12 03:02:22;;;;;;;8.70;2.85;;;30.20;42.50;;;;;;5071183;28;20637;-69
2023/10/12 03:04:49;;;;;;;7.25;3.20;;;30.30;41.60;;;;;;5070678;28;20236;-68
2023/10/12 03:07:22;;;;;;;11.98;3.13;;;30.90;41.00;;;;;;5068238;28;20186;-70
2023/10/12 03:09:55;;;;;;;15.40;3.40;;;31.30;40.30;;;;;;5064417;28;20245;-69
2023/10/12 03:12:33;;;;;;;9.05;2.95;;;31.60;39.90;;;;;;5061280;28;20171;-71
2023/10/12 03:15:03;;;;;;;11.45;3.15;;;31.50;39.50;;;;;;5067029;28;20221;-69
2023/10/12 03:17:31;;;;;;;10.25;3.42;;;31.60;39.40;;;;;;5071260;28;20698;-70
2023/10/12 03:20:22;;;;;;;8.98;3.28;;;31.30;39.90;;;;;;4963986;28;3011129;-70
2023/10/12 03:22:47;;;;;;;7.55;3.08;;;31.80;38.20;;;;;;5071519;28;20210;-67
2023/10/12 03:25:20;;;;;;;9.18;3.05;;;31.60;38.40;;;;;;5062921;28;20194;-69
2023/10/12 03:27:52;;;;;;;6.65;2.50;;;31.90;36.00;;;;;;5068051;28;20228;-70
2023/10/12 03:30:34;;;;;;;9.07;2.80;;;32.60;33.50;;;;;;5069822;28;20183;-70
2023/10/12 03:33:09;;;;;;;9.30;2.75;;;33.00;33.80;;;;;;5068172;28;20537;-68
2023/10/12 03:35:58;;;;;;;11.00;3.13;;;33.20;34.40;;;;;;5070021;28;20224;-69
2023/10/12 03:38:25;;;;;;;9.65;2.38;;;32.70;34.20;;;;;;5070186;28;20183;-70
2023/10/12 03:41:46;;;;;;;11.02;2.97;;;33.00;33.80;;;;;;5065343;28;20195;-69
2023/10/12 03:43:40;;;;;;;6.05;2.22;;;32.30;34.60;;;;;;5063267;28;20187;-71
2023/10/12 03:46:17;;;;;;;4.68;2.17;;;32.70;33.40;;;;;;5070755;28;20733;-69
2023/10/12 03:53:56;;;;;;;3.22;1.23;;;34.30;20.60;;;;;;5071822;28;20179;-68
2023/10/12 03:56:36;;;;;;;6.03;1.40;;;34.60;20.10;;;;;;5071064;28;22005;-71
2023/10/12 03:59:06;;;;;;;1.83;1.00;;;35.00;20.00;;;;;;5073578;28;20652;-69
2023/10/12 04:01:41;;;;;;;1.42;1.17;;;35.10;19.00;;;;;;5070922;28;20559;-74
2023/10/12 04:07:16;;;;;;;4.03;1.33;;;35.10;18.50;;;;;;5071830;28;20677;-69
2023/10/12 04:09:44;;;;;;;4.50;1.48;;;34.90;18.80;;;;;;5071227;28;20183;-69
2023/10/12 04:14:54;;;;;;;1.75;1.38;;;34.60;18.80;;;;;;5067628;28;20290;-69
2023/10/12 04:33:27;;;;;;;1.25;1.10;;;35.40;18.10;;;;;;5074056;28;20180;-71
2023/10/12 04:36:23;;;;;;;6.88;1.35;;;35.80;17.50;;;;;;5072646;28;20203;-68
2023/10/12 04:43:53;;;;;;;6.90;1.20;;;35.90;17.80;;;;;;5064246;28;20175;-70
2023/10/12 04:49:00;;;;;;;6.55;1.55;;;35.30;18.10;;;;;;5071866;28;20714;-72
2023/10/12 04:51:30;;;;;;;2.70;1.30;;;35.40;18.20;;;;;;5074080;28;20182;-72
2023/10/12 04:54:05;;;;;;;5.60;1.60;;;35.70;17.60;;;;;;5072926;28;20212;-71
2023/10/12 04:56:36;;;;;;;7.57;2.55;;;35.50;23.60;;;;;;5072452;28;20221;-71
2023/10/12 04:59:17;;;;;;;4.50;1.90;;;34.30;28.80;;;;;;5072756;28;20672;-72
2023/10/12 05:04:49;;;;;;;7.63;1.50;;;34.30;20.20;;;;;;5062533;28;20198;-72
2023/10/12 05:09:50;;;;;;;2.55;1.38;;;35.60;18.40;;;;;;5071292;28;20574;-71
2023/10/12 05:12:23;;;;;;;4.45;1.20;;;36.30;17.60;;;;;;5063184;28;20187;-74
2023/10/12 05:14:59;;;;;;;3.85;1.30;;;36.50;17.20;;;;;;5064790;28;20207;-70
2023/10/12 05:17:26;;;;;;;1.73;1.20;;;36.20;16.70;;;;;;5070634;28;20261;-70
2023/10/12 05:19:54;;;;;;;7.35;1.40;;;35.80;17.30;;;;;;5067823;28;20223;-73
2023/10/12 05:22:24;;;;;;;3.38;1.20;;;34.90;17.80;;;;;;5072696;28;20220;-72
2023/10/12 05:24:53;;;;;;;1.35;1.15;;;35.30;17.60;;;;;;5070042;28;20179;-69
2023/10/12 05:27:24;;;;;;;2.75;1.35;;;35.80;17.10;;;;;;5071558;28;20867;-68
2023/10/12 05:29:59;;;;;;;3.97;1.40;;;36.50;17.20;;;;;;5071918;28;20183;-72
2023/10/12 05:32:43;;;;;;;1.55;1.30;;;37.10;16.70;;;;;;5071823;28;20179;-72
2023/10/12 05:35:16;;;;;;;2.60;1.38;;;36.50;17.00;;;;;;5055835;28;20306;-71
2023/10/12 05:37:50;;;;;;;4.78;1.40;;;36.50;17.20;;;;;;5071573;28;20172;-71
2023/10/12 05:40:18;;;;;;;2.78;1.23;;;36.60;17.20;;;;;;5066019;28;20186;-71
2023/10/12 05:42:48;;;;;;;2.05;1.23;;;36.60;16.80;;;;;;5070077;28;20186;-72
2023/10/12 05:45:22;;;;;;;2.83;1.40;;;36.60;16.60;;;;;;5061107;28;20195;-70
2023/10/12 05:47:53;;;;;;;6.82;1.40;;;36.80;16.60;;;;;;5072946;28;20179;-71
2023/10/12 05:50:24;;;;;;;4.00;1.38;;;37.70;16.30;;;;;;5074148;28;20698;-71
2023/10/12 05:52:52;;;;;;;1.88;0.93;;;37.70;16.20;;;;;;5073441;28;20222;-69
2023/10/12 05:55:21;;;;;;;5.00;1.00;;;38.30;15.60;;;;;;5071377;28;20676;-70
2023/10/12 05:57:49;;;;;;;1.77;1.10;;;37.90;15.90;;;;;;5072272;28;20222;-70
2023/10/12 06:00:35;;;;;;;4.38;1.33;;;37.70;16.30;;;;;;5073646;28;20172;-69
2023/10/12 06:03:07;;;;;;;2.05;1.30;;;37.80;16.80;;;;;;5072217;28;20649;-69
2023/10/12 06:05:37;;;;;;;2.80;1.20;;;37.70;16.30;;;;;;5069700;28;20672;-71
2023/10/12 06:08:05;;;;;;;3.42;1.23;;;37.90;16.10;;;;;;5071841;28;20179;-73
2023/10/12 06:10:40;;;;;;;3.75;1.05;;;37.60;16.30;;;;;;5072462;28;20729;-69
2023/10/12 06:13:09;;;;;;;16.05;3.45;;;37.70;16.40;;;;;;5055803;28;20518;-71
2023/10/12 06:15:41;;;;;;;18.75;3.63;;;36.30;30.00;;;;;;5072480;28;20247;-69
2023/10/12 06:18:21;;;;;;;17.60;4.30;;;34.40;33.60;;;;;;5073576;28;20179;-68
2023/10/12 06:23:50;;;;;;;7.78;3.40;;;31.80;38.20;;;;;;5062856;28;20266;-70
2023/10/12 06:26:30;;;;;;;17.42;3.80;;;30.20;40.80;;;;;;5073253;28;20175;-70
2023/10/12 06:29:01;;;;;;;12.15;3.88;;;29.20;43.30;;;;;;5072051;28;20187;-71
2023/10/12 06:31:33;;;;;;;13.50;3.60;;;29.00;43.50;;;;;;5073686;28;20203;-70
2023/10/12 06:34:10;;;;;;;11.55;2.58;;;29.10;42.70;;;;;;5072499;28;20191;-70
2023/10/12 06:36:38;;;;;;;13.57;3.10;;;29.30;41.70;;;;;;5073442;28;20206;-68
2023/10/12 06:46:49;;;;;;;14.10;3.77;;;28.30;43.50;;;;;;5072386;28;20207;-69
2023/10/12 06:49:29;;;;;;;11.20;3.43;;;29.50;41.00;;;;;;5072523;28;20183;-68
2023/10/12 07:06:28;;;;;;;10.48;2.45;;;29.80;37.70;;;;;;5072448;28;20175;-70
2023/10/12 07:08:56;;;;;;;12.48;2.97;;;30.10;36.10;;;;;;5072805;28;20625;-69
2023/10/12 07:11:24;;;;;;;8.70;2.72;;;29.30;37.30;;;;;;5070948;28;20641;-71
2023/10/12 07:13:52;;;;;;;13.57;3.33;;;28.90;38.00;;;;;;5070185;28;20183;-70
2023/10/12 07:16:21;;;;;;;9.63;3.10;;;28.30;39.10;;;;;;5066523;28;20307;-70
2023/10/12 07:18:49;;;;;;;10.43;3.30;;;29.00;38.20;;;;;;5063099;28;20211;-69
2023/10/12 07:21:22;;;;;;;10.47;3.20;;;29.00;38.10;;;;;;5069742;28;20238;-70
2023/10/12 07:23:53;;;;;;;11.50;3.47;;;28.20;40.00;;;;;;5065232;28;20245;-69
2023/10/12 07:26:23;;;;;;;13.87;3.50;;;28.00;40.60;;;;;;5071638;28;20548;-70
2023/10/12 07:28:51;;;;;;;10.83;3.70;;;27.70;41.40;;;;;;5071614;28;20633;-69
2023/10/12 07:36:58;;;;;;;15.87;3.73;;;27.60;41.40;;;;;;5071299;28;20210;-69
2023/10/12 07:39:21;;;;;;;10.77;3.77;;;27.40;42.10;;;;;;5068057;28;20195;-69
2023/10/12 07:42:12;;;;;;;9.80;3.20;;;27.40;41.90;;;;;;5072460;28;20179;-70
2023/10/12 07:44:41;;;;;;;9.47;3.57;;;27.30;42.30;;;;;;5069281;28;20209;-68
2023/10/12 07:47:25;;;;;;;18.73;3.73;;;27.10;42.30;;;;;;5071555;28;20609;-69
2023/10/12 07:49:57;;;;;;;11.10;4.00;;;27.00;43.00;;;;;;5049341;28;20214;-70
2023/10/12 07:55:13;;;;;;;14.50;4.10;;;26.80;43.20;;;;;;5061973;28;20323;-69
2023/10/12 07:57:41;;;;;;;12.50;4.30;;;26.80;43.40;;;;;;5071181;28;20215;-70
2023/10/12 08:15:58;;;;;;;9.93;3.47;;;26.00;44.00;;;;;;5069937;28;20574;-69
2023/10/12 08:32:11;;;;;;;13.47;2.67;;;26.10;40.30;;;;;;5074649;28;20179;-69
2023/10/12 08:37:18;;;;;;;8.60;3.60;;;26.60;35.50;;;;;;5074785;28;20248;-69
2023/10/12 08:39:51;;;;;;;9.00;3.23;;;26.70;37.80;;;;;;5074854;28;20183;-70
2023/10/12 08:44:54;;;;;;;10.80;3.20;;;26.40;39.80;;;;;;5073117;28;20578;-69
2023/10/12 08:50:01;;;;;;;8.97;3.47;;;26.30;40.20;;;;;;5073885;28;20175;-69
2023/10/12 08:52:31;;;;;;;11.27;3.70;;;26.30;39.80;;;;;;5074560;28;20190;-68
2023/10/12 08:55:04;;;;;;;10.83;3.30;;;26.30;40.10;;;;;;5074295;28;20264;-68
2023/10/12 08:57:52;;;;;;;9.47;3.20;;;26.30;40.30;;;;;;5073579;28;20676;-68
2023/10/12 09:00:43;;;;;;;9.40;4.87;;;26.30;40.20;;;;;;5074965;28;20179;-66
2023/10/12 09:04:03;;;;;;;10.67;3.33;;;26.40;39.60;;;;;;5072003;28;20690;-65
2023/10/12 09:06:07;;;;;;;7.63;2.00;;;26.70;35.40;;;;;;5058344;28;20225;-68
2023/10/12 09:11:25;;;;;;;17.67;2.77;;;26.70;38.10;;;;;;5072834;28;20542;-72
2023/10/12 09:13:51;;;;;;;8.17;2.33;;;24.50;53.50;;;;;;5072737;28;20191;-64
2023/10/12 09:16:19;;;;;;;10.77;2.93;;;22.50;62.30;;;;;;5073647;28;20734;-66
2023/10/12 09:19:28;;;;;;;10.67;3.13;;;21.80;65.30;;;;;;5074464;28;20179;-67
2023/10/12 09:21:42;;;;;;;18.87;2.90;;;21.50;68.80;;;;;;5055443;28;20195;-66
2023/10/12 09:24:28;;;;;;;16.23;2.50;;;21.40;70.50;;;;;;5073619;28;20656;-68
2023/10/12 09:27:01;;;;;;;9.53;2.40;;;21.50;67.90;;;;;;5064005;28;20229;-70
2023/10/12 09:29:40;;;;;;;7.77;2.30;;;21.70;70.60;;;;;;5073905;28;20262;-70
2023/10/12 09:32:14;;;;;;;9.67;2.47;;;21.80;65.90;;;;;;5072397;28;20244;-70
2023/10/12 09:34:47;;;;;;;9.03;2.93;;;22.30;64.30;;;;;;5074668;28;20584;-70
2023/10/12 09:37:18;;;;;;;3.17;2.00;;;22.40;63.50;;;;;;5071220;28;20198;-69
2023/10/12 09:39:47;;;;;;;12.40;2.47;;;22.50;62.70;;;;;;5072722;28;20179;-72
2023/10/12 09:42:30;;;;;;;8.87;2.10;;;22.70;62.60;;;;;;5072657;28;20665;-71
2023/10/12 09:45:01;;;;;;;17.63;2.83;;;22.80;61.70;;;;;;5073236;28;20641;-71
2023/10/12 09:47:55;;;;;;;9.80;2.50;;;22.80;61.80;;;;;;5063845;28;20195;-68
2023/10/12 09:50:27;;;;;;;5.20;2.33;;;22.80;61.40;;;;;;5072933;28;20223;-72
2023/10/12 09:52:59;;;;;;;10.60;2.57;;;22.90;62.70;;;;;;5072305;28;20191;-72
2023/10/12 09:55:36;;;;;;;10.33;2.47;;;22.90;60.80;;;;;;5072485;28;20297;-71
2023/10/12 10:01:15;;;;;;;6.27;2.30;;;23.00;61.10;;;;;;5054581;28;20198;-68
2023/10/12 10:07:26;;;;;;;5.07;2.07;;;23.10;58.10;;;;;;5065994;28;20258;-68
2023/10/12 10:10:01;;;;;;;6.27;2.10;;;23.10;56.80;;;;;;5071472;28;20178;-69
2023/10/12 10:12:28;;;;;;;6.27;1.93;;;23.00;57.20;;;;;;5072635;28;20185;-73
2023/10/12 10:15:00;;;;;;;2.90;1.80;;;23.00;56.90;;;;;;5073289;28;20221;-69
2023/10/12 10:17:46;;;;;;;6.60;2.00;;;22.90;56.60;;;;;;5070922;28;20187;-65
2023/10/12 10:23:11;;;;;;;7.47;1.93;;;22.50;56.80;;;;;;5073815;28;20183;-66
2023/10/12 10:25:50;;;;;;;4.87;1.90;;;22.20;56.60;;;;;;5073068;28;20187;-69
2023/10/12 10:28:28;;;;;;;6.07;1.70;;;22.00;55.50;;;;;;5061308;28;20664;-67
2023/10/12 10:30:59;;;;;;;3.47;1.80;;;21.80;54.90;;;;;;5071513;28;20183;-68
2023/10/12 10:33:28;;;;;;;4.33;1.67;;;21.70;51.80;;;;;;5068587;28;20267;-67
2023/10/12 10:35:58;;;;;;;2.60;1.60;;;21.60;52.00;;;;;;5072483;28;20219;-68
2023/10/12 10:38:32;;;;;;;4.57;1.50;;;21.50;52.10;;;;;;5072694;28;20562;-68
2023/10/12 10:41:22;;;;;;;5.87;2.10;;;21.50;52.40;;;;;;5070555;28;20183;-70
2023/10/12 10:43:53;;;;;;;6.67;1.80;;;21.40;52.10;;;;;;5064937;28;20568;-76
2023/10/12 10:46:26;;;;;;;7.77;1.70;;;21.40;52.40;;;;;;5072366;28;20274;-74
2023/10/12 10:48:54;;;;;;;4.03;1.67;;;21.30;52.50;;;;;;5070746;28;20179;-73
2023/10/12 10:51:32;;;;;;;5.17;2.07;;;21.20;52.20;;;;;;5072169;28;20665;-71
2023/10/12 10:54:00;;;;;;;3.23;1.53;;;21.00;52.20;;;;;;5056969;28;20554;-73
2023/10/12 10:56:37;;;;;;;3.23;1.40;;;20.80;51.20;;;;;;5071191;28;20619;-73
2023/10/12 10:59:06;;;;;;;2.70;1.40;;;20.50;50.90;;;;;;5066662;28;20175;-75
2023/10/12 11:01:34;;;;;;;3.20;1.23;;;20.30;51.30;;;;;;5072769;28;20184;-74
2023/10/12 11:04:07;;;;;;;6.07;1.00;;;20.30;51.40;;;;;;5068330;28;20180;-71
2023/10/12 11:06:36;;;;;;;3.47;1.00;;;20.00;47.60;;;;;;5070445;28;20191;-68
2023/10/12 11:09:08;;;;;;;3.03;1.00;;;19.70;47.10;;;;;;5071001;28;20541;-73
2023/10/12 11:11:58;;;;;;;1.97;1.00;;;19.70;47.40;;;;;;5057532;28;20262;-70
2023/10/12 11:14:31;;;;;;;2.80;0.90;;;19.70;47.60;;;;;;5049633;28;20214;-68
2023/10/12 11:17:05;;;;;;;0.77;0.77;;;19.70;47.80;;;;;;5053915;28;20194;-72
2023/10/12 11:19:33;;;;;;;1.43;0.97;;;19.50;47.40;;;;;;5072276;28;20653;-67
2023/10/12 11:22:00;;;;;;;2.60;0.90;;;19.40;47.50;;;;;;5051133;28;20712;-68
2023/10/12 11:24:28;;;;;;;1.83;0.77;;;19.40;47.70;;;;;;5062698;28;20603;-73
2023/10/12 11:26:57;;;;;;;2.83;1.27;;;19.30;47.60;;;;;;5070586;28;20214;-76
2023/10/12 11:29:26;;;;;;;1.80;0.80;;;19.30;47.50;;;;;;5069359;28;20661;-76
2023/10/12 11:32:10;;;;;;;2.50;0.90;;;19.30;47.60;;;;;;5053093;28;20179;-67
2023/10/12 11:34:52;;;;;;;0.93;0.80;;;19.30;47.50;;;;;;5069935;28;20286;-66
2023/10/12 11:37:23;;;;;;;2.03;0.80;;;19.20;47.20;;;;;;5066839;28;20275;-69
2023/10/12 11:39:51;;;;;;;1.50;0.60;;;19.00;47.10;;;;;;5072024;28;20179;-67
2023/10/12 11:42:18;;;;;;;1.10;0.60;;;19.00;46.80;;;;;;5063825;28;20202;-70
2023/10/12 11:44:51;;;;;;;0.80;0.80;;;18.90;46.80;;;;;;5071980;28;20171;-68
2023/10/12 11:47:24;;;;;;;2.33;0.97;;;18.80;46.20;;;;;;5070875;28;20190;-66
2023/10/12 11:49:58;;;;;;;1.93;0.80;;;18.80;46.10;;;;;;5071866;28;20225;-69
2023/10/12 11:52:34;;;;;;;0.97;0.70;;;18.50;46.40;;;;;;5072721;28;20174;-66
2023/10/12 11:55:24;;;;;;;2.97;1.00;;;18.40;47.00;;;;;;5071185;28;20199;-68
2023/10/12 11:57:57;;;;;;;3.17;0.70;;;18.30;46.80;;;;;;5064928;28;20237;-66
2023/10/12 12:00:37;;;;;;;2.27;1.00;;;18.30;46.10;;;;;;5066010;28;20541;-68
2023/10/12 12:03:08;;;;;;;2.40;0.80;;;18.30;46.30;;;;;;5068941;28;20179;-75
2023/10/12 12:05:36;;;;;;;4.20;1.00;;;18.30;45.50;;;;;;5071297;28;20175;-73
2023/10/12 12:08:18;;;;;;;2.30;1.07;;;18.30;45.60;;;;;;5073775;28;20193;-69
2023/10/12 12:10:56;;;;;;;2.53;0.90;;;18.20;45.80;;;;;;5057484;28;20658;-69
2023/10/12 12:13:23;;;;;;;0.90;0.80;;;18.30;45.80;;;;;;5074425;28;20187;-73
2023/10/12 12:15:58;;;;;;;1.53;1.00;;;18.30;45.30;;;;;;5075296;28;20301;-69
2023/10/12 12:18:27;;;;;;;2.87;0.93;;;18.30;44.90;;;;;;5062705;28;20182;-71
2023/10/12 12:20:56;;;;;;;1.17;0.80;;;18.20;44.90;;;;;;5075046;28;20445;-70
2023/10/12 12:23:27;;;;;;;1.37;0.80;;;18.30;44.90;;;;;;5075529;28;20567;-65
2023/10/12 12:26:07;;;;;;;3.93;0.83;;;18.20;44.80;;;;;;5074508;28;20206;-66
2023/10/12 12:28:43;;;;;;;2.37;0.93;;;18.20;44.80;;;;;;5074641;28;20597;-67
2023/10/12 12:31:15;;;;;;;1.93;0.80;;;18.00;45.10;;;;;;5074960;28;20189;-69
2023/10/12 12:33:46;;;;;;;1.67;0.90;;;18.00;45.00;;;;;;5074847;28;20627;-68
2023/10/12 12:36:21;;;;;;;1.63;0.80;;;17.90;45.10;;;;;;5075178;28;20214;-72
2023/10/12 12:38:57;;;;;;;1.07;0.77;;;17.90;45.30;;;;;;5075268;28;20181;-68
2023/10/12 12:41:24;;;;;;;1.50;0.80;;;17.90;47.90;;;;;;5074576;28;20633;-70
2023/10/12 12:43:58;;;;;;;1.97;0.90;;;17.70;46.90;;;;;;5074388;28;20728;-70
2023/10/12 12:46:29;;;;;;;1.03;0.80;;;17.70;47.50;;;;;;5075039;28;20214;-66
2023/10/12 12:48:57;;;;;;;2.27;0.80;;;17.70;46.50;;;;;;5073798;28;20214;-72
2023/10/12 12:51:24;;;;;;;1.20;1.00;;;17.70;46.00;;;;;;5075094;28;20585;-70
2023/10/12 12:53:53;;;;;;;1.83;0.90;;;17.60;47.60;;;;;;5073286;28;20180;-68
2023/10/12 12:56:22;;;;;;;2.00;0.90;;;17.30;51.20;;;;;;5074608;28;20186;-66
2023/10/12 12:58:52;;;;;;;2.50;1.10;;;16.80;53.20;;;;;;5074965;28;20641;-67
2023/10/12 13:01:24;;;;;;;4.80;1.00;;;16.30;55.50;;;;;;5073567;28;20260;-66
2023/10/12 13:03:52;;;;;;;2.47;1.33;;;15.70;62.90;;;;;;5048127;28;20172;-66
2023/10/12 13:06:20;;;;;;;4.30;1.40;;;15.10;69.80;;;;;;5074267;28;20657;-69
2023/10/12 13:08:47;;;;;;;1.30;1.10;;;14.70;71.20;;;;;;5075233;28;20643;-69
2023/10/12 13:11:22;;;;;;;6.63;1.60;;;14.50;74.30;;;;;;5074568;28;20185;-67
2023/10/12 13:13:49;;;;;;;3.27;1.27;;;14.50;75.40;;;;;;5075050;28;20523;-69
2023/10/12 13:16:17;;;;;;;3.63;1.70;;;14.30;76.50;;;;;;5073734;28;20210;-69
2023/10/12 13:18:48;;;;;;;2.23;1.10;;;14.00;75.60;;;;;;5073992;28;20618;-68
2023/10/12 13:21:16;;;;;;;1.97;1.47;;;13.90;76.90;;;;;;5074519;28;20250;-67
2023/10/12 13:23:45;;;;;;;2.70;1.30;;;14.00;76.80;;;;;;5073209;28;20214;-68
2023/10/12 13:26:17;;;;;;;3.10;1.20;;;14.10;77.30;;;;;;5069432;28;20219;-69
2023/10/12 13:28:44;;;;;;;1.90;1.20;;;14.10;77.60;;;;;;5074340;28;20531;-70
2023/10/12 13:31:12;;;;;;;3.60;1.03;;;14.00;76.60;;;;;;5074867;28;20254;-67
2023/10/12 13:33:43;;;;;;;1.80;1.13;;;14.10;76.20;;;;;;5074350;28;20180;-69
2023/10/12 13:36:10;;;;;;;3.07;1.27;;;14.10;75.70;;;;;;5074604;28;20190;-66
2023/10/12 13:38:38;;;;;;;2.40;1.13;;;14.20;75.60;;;;;;5069225;28;20175;-70
2023/10/12 13:41:05;;;;;;;3.43;1.40;;;14.10;75.10;;;;;;5073961;28;20194;-67
2023/10/12 13:43:34;;;;;;;2.73;1.53;;;14.30;75.60;;;;;;5072697;28;20547;-68
2023/10/12 13:46:08;;;;;;;1.63;1.10;;;14.20;75.80;;;;;;5074354;28;20587;-67
2023/10/12 13:48:38;;;;;;;3.27;1.30;;;14.20;76.10;;;;;;5073367;28;20266;-66
2023/10/12 13:51:17;;;;;;;4.37;1.40;;;14.20;75.70;;;;;;5074450;28;20214;-68
2023/10/12 13:53:46;;;;;;;2.67;1.20;;;14.20;76.70;;;;;;5074081;28;20706;-67
2023/10/12 13:56:14;;;;;;;3.57;1.30;;;14.30;76.30;;;;;;5073840;28;20240;-67
2023/10/12 13:58:47;;;;;;;2.27;1.03;;;14.50;76.60;;;;;;5074359;28;20591;-66
2023/10/12 14:01:14;;;;;;;3.60;1.50;;;14.50;75.90;;;;;;5062651;28;20591;-67
2023/10/12 14:03:52;;;;;;;2.67;1.37;;;14.50;75.30;;;;;;5073948;28;20178;-67
2023/10/12 14:06:20;;;;;;;2.07;1.20;;;14.60;74.30;;;;;;5072657;28;20219;-69
2023/10/12 14:08:47;;;;;;;3.80;1.50;;;14.60;74.80;;;;;;5073894;28;20171;-67
2023/10/12 14:11:16;;;;;;;2.73;1.37;;;14.60;74.20;;;;;;5072596;28;20187;-69
2023/10/12 14:13:47;;;;;;;2.70;1.20;;;14.50;73.50;;;;;;5073516;28;20224;-67
2023/10/12 14:16:15;;;;;;;1.97;1.40;;;14.60;74.10;;;;;;5074010;28;20200;-67
2023/10/12 14:18:43;;;;;;;3.63;1.30;;;14.50;73.70;;;;;;5073704;28;20640;-67
2023/10/12 14:21:11;;;;;;;3.80;1.70;;;14.60;74.80;;;;;;5073887;28;20254;-67
2023/10/12 14:23:50;;;;;;;2.63;1.60;;;14.60;74.20;;;;;;5072433;28;20262;-68
2023/10/12 14:26:18;;;;;;;5.07;1.57;;;14.60;73.90;;;;;;5072230;28;20353;-67
2023/10/12 14:28:50;;;;;;;4.53;1.60;;;14.60;73.50;;;;;;5058477;28;20171;-67
2023/10/12 14:31:20;;;;;;;2.90;1.53;;;14.60;73.30;;;;;;5065860;28;20178;-69
2023/10/12 14:33:47;;;;;;;3.73;1.27;;;14.80;72.90;;;;;;5073300;28;20179;-65
2023/10/12 14:36:16;;;;;;;2.37;1.40;;;14.80;73.10;;;;;;5072425;28;20558;-68
2023/10/12 14:38:45;;;;;;;5.20;1.70;;;14.80;71.80;;;;;;5071393;28;20211;-67
2023/10/12 14:41:16;;;;;;;3.70;1.47;;;14.80;72.10;;;;;;5072849;28;20267;-69
2023/10/12 14:43:47;;;;;;;1.43;1.10;;;14.80;72.40;;;;;;5055739;28;20243;-67
2023/10/12 14:46:18;;;;;;;2.67;1.00;;;14.70;69.00;;;;;;5073068;28;20280;-67
2023/10/12 14:48:49;;;;;;;4.50;1.20;;;14.70;70.00;;;;;;5073217;28;20167;-70
2023/10/12 14:51:25;;;;;;;1.20;1.10;;;14.80;69.80;;;;;;5073046;28;20270;-70
2023/10/12 14:53:52;;;;;;;1.33;1.10;;;14.70;67.70;;;;;;5072991;28;20166;-71
2023/10/12 14:56:27;;;;;;;2.50;1.10;;;14.80;68.10;;;;;;5072963;28;20206;-71
2023/10/12 14:58:55;;;;;;;2.83;0.90;;;14.70;66.50;;;;;;5073122;28;20210;-67
2023/10/12 15:01:27;;;;;;;1.80;1.00;;;14.80;65.80;;;;;;5073092;28;20179;-67
2023/10/12 15:03:58;;;;;;;4.10;1.33;;;14.80;66.30;;;;;;5072174;28;20245;-65
2023/10/12 15:06:31;;;;;;;4.10;1.20;;;14.80;65.80;;;;;;5069338;28;20620;-70
2023/10/12 15:08:58;;;;;;;2.00;1.00;;;14.80;65.20;;;;;;5072313;28;20183;-70
2023/10/12 15:11:26;;;;;;;2.40;0.93;;;14.80;64.90;;;;;;5072152;28;20185;-72
2023/10/12 15:13:54;;;;;;;3.93;1.10;;;14.80;63.60;;;;;;5072577;28;20604;-67
2023/10/12 15:16:24;;;;;;;2.73;1.07;;;14.80;63.70;;;;;;5072847;28;20645;-70
2023/10/12 15:18:52;;;;;;;2.40;1.20;;;14.80;64.00;;;;;;5072982;28;20179;-71
2023/10/12 15:21:21;;;;;;;0.90;0.90;;;14.80;63.80;;;;;;5054737;28;20236;-71
2023/10/12 15:23:48;;;;;;;1.63;0.97;;;14.70;63.00;;;;;;5054531;28;20536;-68
2023/10/12 15:26:16;;;;;;;1.67;1.17;;;14.70;62.90;;;;;;5070701;28;20215;-70
2023/10/12 15:28:47;;;;;;;2.03;0.90;;;14.70;63.50;;;;;;5052164;28;20621;-70
2023/10/12 15:31:16;;;;;;;4.57;0.93;;;14.60;63.10;;;;;;5070804;28;20180;-71
2023/10/12 15:33:43;;;;;;;2.00;1.00;;;14.60;63.50;;;;;;5071893;28;20177;-72